Time;durP1;ratioP1;P1;durP2;ratioP2;P2;SDS_P1;SDS_P2;PMS_P1;PMS_P2;Temp;Humidity;BMP_temperature;BMP_pressure;BME280_temperature;BME280_humidity;BME280_pressure;Samples;Min_cycle;Max_cycle;Signal;HPM_P1;HPM_P2
2023/04/09 00:01:10;;;;;;;97.20;45.72;;;8.70;99.90;;;;;;5129874;27;20259;-64
2023/04/09 00:03:37;;;;;;;96.43;44.42;;;8.70;99.90;;;;;;5096014;28;20126;-64
2023/04/09 00:06:03;;;;;;;93.80;45.05;;;8.60;99.90;;;;;;5106294;28;20039;-64
2023/04/09 00:08:45;;;;;;;98.45;44.00;;;8.60;99.90;;;;;;5105806;28;20043;-64
2023/04/09 00:11:11;;;;;;;96.47;44.63;;;8.60;99.90;;;;;;5095802;28;20136;-64
2023/04/09 00:13:36;;;;;;;100.03;45.17;;;8.60;99.90;;;;;;5125088;27;20088;-64
2023/04/09 00:16:02;;;;;;;96.40;45.40;;;8.60;99.90;;;;;;5111755;28;20050;-64
2023/04/09 00:18:27;;;;;;;91.82;44.55;;;8.60;99.90;;;;;;5105613;27;20046;-64
2023/04/09 00:20:53;;;;;;;97.15;44.10;;;8.60;99.90;;;;;;5128436;27;20035;-64
2023/04/09 00:23:19;;;;;;;94.90;45.22;;;8.60;99.90;;;;;;5110645;27;20101;-64
2023/04/09 00:25:45;;;;;;;93.55;43.03;;;8.60;99.90;;;;;;5106164;28;20038;-64
2023/04/09 00:28:12;;;;;;;93.82;43.45;;;8.60;99.90;;;;;;5123911;27;20035;-64
2023/04/09 00:30:39;;;;;;;94.20;46.03;;;8.60;99.90;;;;;;5104157;28;20066;-64
2023/04/09 00:33:05;;;;;;;96.25;45.05;;;8.60;99.90;;;;;;5114749;28;20039;-64
2023/04/09 00:35:30;;;;;;;99.72;45.15;;;8.50;99.90;;;;;;5104464;28;20035;-64
2023/04/09 00:37:56;;;;;;;95.88;46.03;;;8.50;99.90;;;;;;5106238;28;20135;-64
2023/04/09 00:40:21;;;;;;;92.85;44.83;;;8.60;99.90;;;;;;5101731;28;20367;-64
2023/04/09 00:42:47;;;;;;;95.82;46.10;;;8.60;99.90;;;;;;5128537;27;20043;-64
2023/04/09 00:45:13;;;;;;;91.95;44.28;;;8.60;99.90;;;;;;5129844;27;20114;-64
2023/04/09 00:47:38;;;;;;;89.60;44.05;;;8.50;99.90;;;;;;5111635;27;20048;-64
2023/04/09 00:50:05;;;;;;;84.70;42.15;;;8.50;99.90;;;;;;5113038;28;20039;-64
2023/04/09 00:52:32;;;;;;;90.40;44.40;;;8.50;99.90;;;;;;5112869;28;20047;-64
2023/04/09 00:55:00;;;;;;;86.05;42.47;;;8.50;99.90;;;;;;5130563;27;20074;-64
2023/04/09 00:57:27;;;;;;;84.18;41.78;;;8.50;99.90;;;;;;5113860;27;20039;-64
2023/04/09 00:59:53;;;;;;;88.78;43.08;;;8.50;99.90;;;;;;5109454;27;20502;-64
2023/04/09 01:02:18;;;;;;;88.03;42.25;;;8.50;99.90;;;;;;5101831;27;20035;-64
2023/04/09 01:04:44;;;;;;;81.47;40.78;;;8.50;99.90;;;;;;5107940;27;20617;-64
2023/04/09 01:07:22;;;;;;;83.25;40.60;;;8.40;99.90;;;;;;5130263;27;20039;-64
2023/04/09 01:10:00;;;;;;;82.28;39.70;;;8.50;99.90;;;;;;5111503;28;20063;-64
2023/04/09 01:12:53;;;;;;;81.53;40.65;;;8.50;99.90;;;;;;5135441;27;20035;-63
2023/04/09 01:15:25;;;;;;;80.35;39.40;;;8.50;99.90;;;;;;5114509;27;20043;-63
2023/04/09 01:18:17;;;;;;;79.38;38.88;;;8.40;99.90;;;;;;5109791;27;20052;-63
2023/04/09 01:20:54;;;;;;;81.32;38.90;;;8.40;99.90;;;;;;5116656;27;20490;-63
2023/04/09 01:23:36;;;;;;;84.82;40.35;;;8.40;99.90;;;;;;5106666;27;20040;-63
2023/04/09 01:26:35;;;;;;;78.53;37.55;;;8.40;99.90;;;;;;5096184;27;20039;-64
2023/04/09 01:29:04;;;;;;;84.47;37.67;;;8.40;99.90;;;;;;5121254;27;20035;-64
2023/04/09 01:31:32;;;;;;;83.70;38.60;;;8.30;99.90;;;;;;5135157;27;20482;-64
2023/04/09 01:33:59;;;;;;;82.03;38.03;;;8.30;99.90;;;;;;5104893;27;20046;-63
2023/04/09 01:36:27;;;;;;;77.13;37.42;;;8.30;99.90;;;;;;5134934;27;20066;-64
2023/04/09 01:38:54;;;;;;;74.53;35.80;;;8.30;99.90;;;;;;5104349;27;20503;-64
2023/04/09 01:41:21;;;;;;;72.22;33.35;;;8.30;99.90;;;;;;5113656;28;20089;-64
2023/04/09 01:43:51;;;;;;;66.00;32.80;;;8.30;99.90;;;;;;5105134;27;20046;-64
2023/04/09 01:46:21;;;;;;;65.95;32.75;;;8.30;99.90;;;;;;5122794;27;20370;-64
2023/04/09 01:48:48;;;;;;;67.28;34.05;;;8.20;99.90;;;;;;5102710;27;20044;-63
2023/04/09 01:51:14;;;;;;;68.75;33.53;;;8.30;99.90;;;;;;5104997;27;20054;-63
2023/04/09 01:53:40;;;;;;;69.15;33.03;;;8.20;99.90;;;;;;5110562;27;20043;-64
2023/04/09 01:56:07;;;;;;;70.43;33.22;;;8.20;99.90;;;;;;5116420;27;20378;-64
2023/04/09 01:58:33;;;;;;;61.47;31.77;;;8.20;99.90;;;;;;5114024;27;20035;-64
2023/04/09 02:01:24;;;;;;;58.17;29.55;;;8.20;99.90;;;;;;5117265;27;20039;-64
2023/04/09 02:04:01;;;;;;;59.60;29.77;;;8.20;99.90;;;;;;5098109;27;20056;-64
2023/04/09 02:06:38;;;;;;;59.65;30.25;;;8.20;99.90;;;;;;5133764;27;20043;-64
2023/04/09 02:09:07;;;;;;;59.13;29.48;;;8.20;99.90;;;;;;5111272;27;20039;-64
2023/04/09 02:11:36;;;;;;;59.78;29.95;;;8.20;99.90;;;;;;5115783;27;20087;-64
2023/04/09 02:14:03;;;;;;;60.83;29.02;;;8.20;99.90;;;;;;5113758;27;20105;-64
2023/04/09 02:16:30;;;;;;;57.85;29.00;;;8.20;99.90;;;;;;5118946;27;20035;-64
2023/04/09 02:18:56;;;;;;;57.97;30.25;;;8.20;99.90;;;;;;5113807;27;20042;-64
2023/04/09 02:21:22;;;;;;;57.75;28.67;;;8.10;99.90;;;;;;5114751;27;20045;-64
2023/04/09 02:23:49;;;;;;;61.78;29.35;;;8.10;99.90;;;;;;5112829;28;20046;-64
2023/04/09 02:26:14;;;;;;;60.80;28.65;;;8.10;99.90;;;;;;5116631;27;20084;-64
2023/04/09 02:28:40;;;;;;;55.15;28.63;;;8.10;99.90;;;;;;5131881;27;20416;-64
2023/04/09 02:31:05;;;;;;;57.78;28.40;;;8.10;99.90;;;;;;5122302;27;20030;-64
2023/04/09 02:33:31;;;;;;;57.13;29.13;;;8.10;99.90;;;;;;5107934;28;20501;-63
2023/04/09 02:35:56;;;;;;;63.10;30.45;;;8.10;99.90;;;;;;5103937;27;20065;-64
2023/04/09 02:38:23;;;;;;;60.20;28.80;;;8.10;99.90;;;;;;5113702;27;20395;-64
2023/04/09 02:40:48;;;;;;;60.03;28.73;;;8.10;99.90;;;;;;5103930;28;20055;-64
2023/04/09 02:43:14;;;;;;;61.45;29.67;;;8.00;99.90;;;;;;5094932;27;20044;-64
2023/04/09 02:45:39;;;;;;;57.20;29.05;;;8.00;99.90;;;;;;5095651;27;20044;-64
2023/04/09 02:48:05;;;;;;;62.22;29.25;;;8.00;99.90;;;;;;5111849;27;20061;-65
2023/04/09 02:50:30;;;;;;;60.17;28.52;;;8.00;99.90;;;;;;5113895;27;20096;-64
2023/04/09 02:52:56;;;;;;;64.32;29.45;;;8.00;99.90;;;;;;5106000;27;20063;-64
2023/04/09 02:55:21;;;;;;;60.63;29.40;;;8.00;99.90;;;;;;5112143;27;20375;-64
2023/04/09 02:57:47;;;;;;;59.90;29.05;;;8.00;99.90;;;;;;5133342;27;20389;-64
2023/04/09 03:00:13;;;;;;;55.95;28.42;;;8.00;99.90;;;;;;5131319;27;20042;-64
2023/04/09 03:02:38;;;;;;;58.42;29.42;;;8.00;99.90;;;;;;5113508;27;20047;-64
2023/04/09 03:05:05;;;;;;;60.45;28.75;;;8.00;99.90;;;;;;5110969;27;20035;-64
2023/04/09 03:07:30;;;;;;;58.08;28.30;;;8.00;99.90;;;;;;5114599;27;20046;-64
2023/04/09 03:09:58;;;;;;;59.33;29.00;;;8.00;99.90;;;;;;5099254;27;20039;-64
2023/04/09 03:12:23;;;;;;;60.10;28.70;;;8.00;99.90;;;;;;5096885;28;20054;-64
2023/04/09 03:14:49;;;;;;;59.85;28.10;;;8.00;99.90;;;;;;5101916;27;20043;-64
2023/04/09 03:17:15;;;;;;;65.13;29.73;;;7.90;99.90;;;;;;5112533;27;20074;-63
2023/04/09 03:19:40;;;;;;;62.63;28.08;;;7.90;99.90;;;;;;5103730;27;20122;-64
2023/04/09 03:22:06;;;;;;;60.85;28.70;;;7.90;99.90;;;;;;5104750;27;20046;-64
2023/04/09 03:24:32;;;;;;;59.05;29.85;;;7.90;99.90;;;;;;5102264;27;20035;-65
2023/04/09 03:26:58;;;;;;;60.00;29.17;;;7.90;99.90;;;;;;5108654;27;20517;-64
2023/04/09 03:29:24;;;;;;;65.00;29.48;;;7.90;99.90;;;;;;5099969;28;20048;-64
2023/04/09 03:31:50;;;;;;;60.63;29.67;;;7.90;99.90;;;;;;5107337;27;20047;-64
2023/04/09 03:34:16;;;;;;;66.88;30.40;;;7.90;99.90;;;;;;5094749;27;20092;-64
2023/04/09 03:36:41;;;;;;;68.32;32.20;;;7.90;99.90;;;;;;5114780;27;20122;-64
2023/04/09 03:39:07;;;;;;;61.22;29.67;;;7.90;99.90;;;;;;5116284;27;20043;-64
2023/04/09 03:41:32;;;;;;;59.33;30.13;;;7.90;99.90;;;;;;5092770;28;20419;-64
2023/04/09 03:43:58;;;;;;;63.25;30.40;;;7.90;99.90;;;;;;5127666;27;20035;-64
2023/04/09 03:46:24;;;;;;;64.78;30.27;;;7.90;99.90;;;;;;5113253;27;20049;-64
2023/04/09 03:48:50;;;;;;;61.40;29.88;;;7.90;99.90;;;;;;5111118;27;20093;-64
2023/04/09 03:51:16;;;;;;;64.20;29.92;;;7.90;99.90;;;;;;5110552;27;20028;-64
2023/04/09 03:53:42;;;;;;;65.30;30.70;;;7.90;99.90;;;;;;5111129;28;20027;-64
2023/04/09 03:56:09;;;;;;;61.65;30.33;;;7.90;99.90;;;;;;5104765;27;20040;-64
2023/04/09 03:58:34;;;;;;;63.17;30.58;;;7.90;99.90;;;;;;5103169;28;20523;-64
2023/04/09 04:01:00;;;;;;;63.17;30.92;;;7.90;99.90;;;;;;5129062;27;20130;-64
2023/04/09 04:03:26;;;;;;;66.38;31.17;;;7.90;99.90;;;;;;5107594;28;20066;-64
2023/04/09 04:05:52;;;;;;;62.58;30.73;;;7.90;99.90;;;;;;5130069;27;20031;-63
2023/04/09 04:08:17;;;;;;;68.13;31.27;;;7.90;99.90;;;;;;5112611;28;20039;-64
2023/04/09 04:10:43;;;;;;;66.97;31.33;;;7.90;99.90;;;;;;5128666;27;20048;-64
2023/04/09 04:13:09;;;;;;;69.07;32.45;;;7.90;99.90;;;;;;5108684;28;20042;-63
2023/04/09 04:15:41;;;;;;;68.43;30.98;;;7.90;99.90;;;;;;5115899;27;20087;-64
2023/04/09 04:18:07;;;;;;;66.70;32.20;;;7.90;99.90;;;;;;5112414;28;20122;-64
2023/04/09 04:20:33;;;;;;;64.00;30.52;;;7.90;99.90;;;;;;5113517;28;20458;-64
2023/04/09 04:22:59;;;;;;;63.10;30.95;;;7.90;99.90;;;;;;5104587;28;20082;-64
2023/04/09 04:25:24;;;;;;;67.28;31.17;;;7.90;99.90;;;;;;5098638;28;20078;-63
2023/04/09 04:27:50;;;;;;;68.10;32.25;;;7.90;99.90;;;;;;5093716;28;20512;-64
2023/04/09 04:30:15;;;;;;;68.57;32.58;;;7.90;99.90;;;;;;5093111;28;20062;-64
2023/04/09 04:32:41;;;;;;;66.00;30.88;;;7.90;99.90;;;;;;5122330;27;20389;-64
2023/04/09 04:35:07;;;;;;;66.50;32.28;;;7.90;99.90;;;;;;5131808;28;20104;-64
2023/04/09 04:37:32;;;;;;;65.20;31.50;;;7.90;99.90;;;;;;5111149;28;20050;-64
2023/04/09 04:40:00;;;;;;;66.20;32.65;;;7.90;99.90;;;;;;5104812;28;20036;-64
2023/04/09 04:42:26;;;;;;;65.65;30.85;;;7.90;99.90;;;;;;5110313;28;20455;-64
2023/04/09 04:44:51;;;;;;;69.50;33.83;;;7.90;99.90;;;;;;5119849;27;20313;-64
2023/04/09 04:47:18;;;;;;;60.88;31.38;;;7.90;99.90;;;;;;5094216;28;20382;-64
2023/04/09 04:49:44;;;;;;;65.70;32.08;;;7.90;99.90;;;;;;5111889;27;20037;-64
2023/04/09 04:52:09;;;;;;;64.53;31.40;;;7.90;99.90;;;;;;5110322;27;20031;-64
2023/04/09 04:54:35;;;;;;;64.20;32.10;;;7.90;99.90;;;;;;5096929;27;20155;-63
2023/04/09 04:57:01;;;;;;;68.50;31.60;;;7.90;99.90;;;;;;5103312;27;20484;-64
2023/04/09 04:59:27;;;;;;;62.97;31.70;;;7.90;99.90;;;;;;5115758;27;20043;-64
2023/04/09 05:01:53;;;;;;;61.55;31.90;;;7.90;99.90;;;;;;5112872;27;20059;-64
2023/04/09 05:04:18;;;;;;;62.83;30.88;;;7.90;99.90;;;;;;5117326;27;20051;-64
2023/04/09 05:06:44;;;;;;;62.83;31.05;;;7.90;99.90;;;;;;5114409;27;20044;-63
2023/04/09 05:09:10;;;;;;;62.25;31.35;;;7.90;99.90;;;;;;5135064;27;20556;-63
2023/04/09 05:11:35;;;;;;;65.75;31.60;;;7.90;99.90;;;;;;5104119;27;20042;-64
2023/04/09 05:14:01;;;;;;;60.42;31.63;;;7.90;99.90;;;;;;5117518;27;20550;-63
2023/04/09 05:16:26;;;;;;;66.28;32.35;;;7.90;99.90;;;;;;5134216;27;20075;-63
2023/04/09 05:18:52;;;;;;;64.93;30.52;;;7.80;99.90;;;;;;5112453;27;20063;-63
2023/04/09 05:21:17;;;;;;;69.13;32.50;;;7.80;99.90;;;;;;5104174;27;20094;-63
2023/04/09 05:23:43;;;;;;;62.50;31.65;;;7.80;99.90;;;;;;5102478;27;20114;-63
2023/04/09 05:26:08;;;;;;;65.53;31.23;;;7.80;99.90;;;;;;5118157;27;20135;-64
2023/04/09 05:28:34;;;;;;;68.88;32.17;;;7.80;99.90;;;;;;5101006;28;20047;-63
2023/04/09 05:30:59;;;;;;;64.97;31.00;;;7.80;99.90;;;;;;5096038;28;20397;-63
2023/04/09 05:33:25;;;;;;;66.07;31.65;;;7.90;99.90;;;;;;5115433;28;20490;-63
2023/04/09 05:35:50;;;;;;;59.03;30.98;;;7.80;99.90;;;;;;5109533;27;20039;-63
2023/04/09 05:38:16;;;;;;;65.30;31.98;;;7.80;99.90;;;;;;5126972;27;20127;-63
2023/04/09 05:40:43;;;;;;;61.83;31.58;;;7.90;99.90;;;;;;5111960;28;20126;-63
2023/04/09 05:43:08;;;;;;;62.40;30.60;;;7.90;99.90;;;;;;5113264;27;20525;-64
2023/04/09 05:45:56;;;;;;;60.80;30.88;;;7.90;99.90;;;;;;5135317;27;20070;-63
2023/04/09 05:48:21;;;;;;;61.28;29.85;;;7.90;99.90;;;;;;5114167;27;20041;-63
2023/04/09 05:50:53;;;;;;;57.33;28.88;;;7.90;99.90;;;;;;5106093;28;20377;-63
2023/04/09 05:53:19;;;;;;;60.08;30.50;;;7.90;99.90;;;;;;5114890;27;20054;-63
2023/04/09 05:55:47;;;;;;;60.40;31.10;;;7.90;99.90;;;;;;5133483;27;20397;-63
2023/04/09 05:58:14;;;;;;;63.33;31.40;;;7.90;99.90;;;;;;5113640;27;20043;-63
2023/04/09 06:00:40;;;;;;;62.65;31.77;;;7.90;99.90;;;;;;5100231;28;20057;-63
2023/04/09 06:03:06;;;;;;;67.68;32.63;;;8.00;99.90;;;;;;5103979;27;20270;-64
2023/04/09 06:05:31;;;;;;;65.10;31.65;;;8.00;99.90;;;;;;5115367;27;20503;-63
2023/04/09 06:07:56;;;;;;;67.18;30.63;;;8.00;99.90;;;;;;5113954;27;20038;-64
2023/04/09 06:10:23;;;;;;;59.97;30.08;;;8.00;99.90;;;;;;5119156;27;20058;-64
2023/04/09 06:12:48;;;;;;;55.50;29.02;;;8.00;99.90;;;;;;5129470;27;20040;-63
2023/04/09 06:15:14;;;;;;;61.53;31.08;;;8.00;99.90;;;;;;5130229;27;21969;-64
2023/04/09 06:17:40;;;;;;;60.42;30.33;;;8.00;99.90;;;;;;5133158;27;20042;-63
2023/04/09 06:20:06;;;;;;;56.42;28.92;;;8.10;99.90;;;;;;5132885;27;20494;-64
2023/04/09 06:22:31;;;;;;;54.15;28.17;;;8.10;99.90;;;;;;5111059;27;20043;-63
2023/04/09 06:24:57;;;;;;;53.63;28.08;;;8.10;99.90;;;;;;5095939;28;20062;-63
2023/04/09 06:27:22;;;;;;;55.30;28.17;;;8.10;99.90;;;;;;5127679;27;20034;-64
2023/04/09 06:29:49;;;;;;;53.58;28.27;;;8.20;99.90;;;;;;5108198;27;20046;-63
2023/04/09 06:32:15;;;;;;;51.50;27.90;;;8.20;99.90;;;;;;5132478;27;20045;-63
2023/04/09 06:34:40;;;;;;;53.53;27.85;;;8.20;99.90;;;;;;5114928;27;20481;-63
2023/04/09 06:37:06;;;;;;;53.78;28.10;;;8.20;99.90;;;;;;5103334;28;20042;-64
2023/04/09 06:39:32;;;;;;;52.25;27.33;;;8.30;99.90;;;;;;5110751;27;20035;-63
2023/04/09 06:41:57;;;;;;;48.55;27.00;;;8.30;99.90;;;;;;5109698;27;20477;-64
2023/04/09 06:44:23;;;;;;;53.00;28.33;;;8.30;99.90;;;;;;5108892;27;20091;-64
2023/04/09 06:46:49;;;;;;;54.13;28.02;;;8.40;99.90;;;;;;5114860;27;20083;-65
2023/04/09 06:49:14;;;;;;;50.30;27.33;;;8.40;99.90;;;;;;5100162;27;20039;-64
2023/04/09 06:51:53;;;;;;;54.13;28.02;;;8.50;99.90;;;;;;5110167;27;20096;-63
2023/04/09 06:54:19;;;;;;;52.88;27.98;;;8.50;99.90;;;;;;5122882;27;20060;-63
2023/04/09 06:56:45;;;;;;;51.00;27.23;;;8.50;99.90;;;;;;5113499;27;20071;-63
2023/04/09 06:59:10;;;;;;;54.13;28.65;;;8.60;99.90;;;;;;5132677;27;20543;-64
2023/04/09 07:01:37;;;;;;;53.38;29.10;;;8.60;99.90;;;;;;5108280;27;20119;-64
2023/04/09 07:04:03;;;;;;;52.90;29.33;;;8.60;99.90;;;;;;5110034;28;20064;-64
2023/04/09 07:06:28;;;;;;;54.55;28.92;;;8.70;99.90;;;;;;5116367;27;20066;-63
2023/04/09 07:08:54;;;;;;;56.22;30.08;;;8.70;99.90;;;;;;5129553;27;20425;-64
2023/04/09 07:11:20;;;;;;;53.70;29.55;;;8.70;99.90;;;;;;5104964;27;20252;-63
2023/04/09 07:13:45;;;;;;;50.92;28.58;;;8.70;99.90;;;;;;5097934;27;20490;-63
2023/04/09 07:16:11;;;;;;;54.28;28.42;;;8.80;99.90;;;;;;5096048;27;20043;-64
2023/04/09 07:18:36;;;;;;;49.67;27.48;;;8.80;99.90;;;;;;5102910;27;20043;-64
2023/04/09 07:21:02;;;;;;;50.30;27.73;;;8.90;99.90;;;;;;5104705;27;20039;-64
2023/04/09 07:23:28;;;;;;;52.03;29.25;;;8.90;99.90;;;;;;5102732;27;20039;-64
2023/04/09 07:25:53;;;;;;;50.85;28.30;;;8.90;99.90;;;;;;5103997;27;20039;-64
2023/04/09 07:28:21;;;;;;;50.20;28.20;;;8.90;99.90;;;;;;5102713;27;20066;-63
2023/04/09 07:30:46;;;;;;;48.25;27.33;;;9.00;99.90;;;;;;5097899;27;20031;-64
2023/04/09 07:33:12;;;;;;;48.50;26.58;;;9.00;99.90;;;;;;5105870;27;20035;-63
2023/04/09 07:35:37;;;;;;;47.85;26.95;;;9.00;99.90;;;;;;5107545;27;20557;-63
2023/04/09 07:38:03;;;;;;;46.33;26.00;;;9.10;99.90;;;;;;5104570;27;20432;-64
2023/04/09 07:40:28;;;;;;;47.28;25.48;;;9.10;99.90;;;;;;5104121;27;20515;-64
2023/04/09 07:42:54;;;;;;;46.38;25.73;;;9.20;99.90;;;;;;5105359;27;20035;-64
2023/04/09 07:45:20;;;;;;;45.85;26.42;;;9.20;99.90;;;;;;5118501;27;20077;-64
2023/04/09 07:47:46;;;;;;;48.58;27.00;;;9.30;99.90;;;;;;5106562;28;20088;-64
2023/04/09 07:50:11;;;;;;;51.08;28.65;;;9.30;99.90;;;;;;5102838;27;20428;-64
2023/04/09 07:52:37;;;;;;;47.72;25.73;;;9.40;99.90;;;;;;5123819;27;20047;-64
2023/04/09 07:55:03;;;;;;;52.63;28.05;;;9.40;99.90;;;;;;5104456;27;20035;-64
2023/04/09 07:57:32;;;;;;;49.42;28.50;;;9.40;99.90;;;;;;5104046;28;20122;-64
2023/04/09 07:59:57;;;;;;;47.65;26.23;;;9.40;99.90;;;;;;5103825;28;20394;-64
2023/04/09 08:02:23;;;;;;;47.00;26.92;;;9.50;99.90;;;;;;5106531;28;21168;-64
2023/04/09 08:04:49;;;;;;;45.45;27.40;;;9.50;99.90;;;;;;5104630;28;20039;-64
2023/04/09 08:07:14;;;;;;;44.17;25.42;;;9.50;99.90;;;;;;5105938;28;20378;-64
2023/04/09 08:09:40;;;;;;;47.85;26.33;;;9.60;99.90;;;;;;5102254;28;20084;-64
2023/04/09 08:12:05;;;;;;;43.95;25.55;;;9.60;99.90;;;;;;5095922;27;20436;-65
2023/04/09 08:14:31;;;;;;;44.38;25.17;;;9.70;99.90;;;;;;5103696;28;20047;-64
2023/04/09 08:16:58;;;;;;;41.33;24.42;;;9.80;99.90;;;;;;5101650;28;20039;-64
2023/04/09 08:19:23;;;;;;;45.03;26.17;;;9.90;99.90;;;;;;5102989;28;20035;-64
2023/04/09 08:21:51;;;;;;;42.20;24.83;;;9.90;99.90;;;;;;5102290;27;20074;-63
2023/04/09 08:24:17;;;;;;;41.13;24.70;;;10.00;99.90;;;;;;5110521;27;20130;-64
2023/04/09 08:26:43;;;;;;;45.00;26.58;;;10.10;99.90;;;;;;5127468;27;20502;-64
2023/04/09 08:29:11;;;;;;;44.55;26.00;;;10.10;99.90;;;;;;5125556;27;20487;-64
2023/04/09 08:31:37;;;;;;;44.10;26.08;;;10.20;99.90;;;;;;5104043;27;20073;-65
2023/04/09 08:34:03;;;;;;;44.63;26.40;;;10.20;99.90;;;;;;5128834;27;20090;-64
2023/04/09 08:36:29;;;;;;;45.90;25.38;;;10.30;99.90;;;;;;5111959;27;20043;-64
2023/04/09 08:38:55;;;;;;;42.58;24.58;;;10.40;99.90;;;;;;5113737;27;20508;-65
2023/04/09 08:41:28;;;;;;;42.95;24.98;;;10.50;99.90;;;;;;5111515;27;20039;-65
2023/04/09 08:43:54;;;;;;;41.97;24.65;;;10.70;99.90;;;;;;5110343;27;20069;-64
2023/04/09 08:46:20;;;;;;;42.03;25.70;;;10.80;99.90;;;;;;5110035;27;20039;-64
2023/04/09 08:48:48;;;;;;;41.70;25.17;;;10.90;99.90;;;;;;5109251;27;20051;-64
2023/04/09 08:51:15;;;;;;;43.47;25.77;;;11.10;99.90;;;;;;5128798;27;20039;-64
2023/04/09 08:53:46;;;;;;;41.05;25.20;;;11.20;99.90;;;;;;5106803;27;20035;-64
2023/04/09 08:56:13;;;;;;;45.13;25.83;;;11.30;99.90;;;;;;5110089;27;20509;-65
2023/04/09 08:58:42;;;;;;;45.00;25.95;;;11.30;99.90;;;;;;5108000;27;20039;-64
2023/04/09 09:01:37;;;;;;;43.85;25.73;;;11.40;99.90;;;;;;5110475;27;20047;-64
2023/04/09 09:04:12;;;;;;;43.50;26.85;;;11.50;99.90;;;;;;5096401;27;20054;-65
2023/04/09 09:06:40;;;;;;;43.00;25.95;;;11.60;99.90;;;;;;5115384;27;20027;-64
2023/04/09 09:09:09;;;;;;;42.30;26.45;;;11.70;99.90;;;;;;5115183;27;20042;-65
2023/04/09 09:11:40;;;;;;;44.60;27.02;;;11.80;99.90;;;;;;5113557;27;20393;-64
2023/04/09 09:14:07;;;;;;;41.53;25.40;;;11.90;99.90;;;;;;5134312;27;20115;-65
2023/04/09 09:16:38;;;;;;;42.70;25.75;;;12.00;99.90;;;;;;5110468;27;20082;-65
2023/04/09 09:19:05;;;;;;;44.42;25.65;;;11.90;99.90;;;;;;5129789;27;20385;-65
2023/04/09 09:21:32;;;;;;;41.20;24.80;;;12.00;99.90;;;;;;5134690;27;20504;-64
2023/04/09 09:23:58;;;;;;;40.75;25.63;;;12.00;99.90;;;;;;5114013;27;20039;-65
2023/04/09 09:26:26;;;;;;;44.22;26.17;;;12.20;99.90;;;;;;5114030;27;20530;-66
2023/04/09 09:28:52;;;;;;;43.25;26.23;;;12.10;99.90;;;;;;5097415;28;20044;-66
2023/04/09 09:31:19;;;;;;;41.38;25.45;;;12.10;99.90;;;;;;5116029;27;20042;-66
2023/04/09 09:33:45;;;;;;;41.05;24.80;;;12.10;99.90;;;;;;5111533;27;20027;-65
2023/04/09 09:36:12;;;;;;;40.60;23.83;;;12.20;99.90;;;;;;5107927;27;20039;-65
2023/04/09 09:38:52;;;;;;;42.90;25.15;;;12.30;99.90;;;;;;5109172;27;20038;-66
2023/04/09 09:41:18;;;;;;;38.28;23.90;;;12.40;99.90;;;;;;5110163;27;20129;-66
2023/04/09 09:43:45;;;;;;;41.63;24.77;;;12.50;99.90;;;;;;5108887;27;20035;-66
2023/04/09 09:46:11;;;;;;;40.50;24.67;;;12.50;99.90;;;;;;5098801;27;20087;-65
2023/04/09 09:48:37;;;;;;;39.47;24.13;;;12.30;99.90;;;;;;5105603;27;20405;-65
2023/04/09 09:51:09;;;;;;;37.47;23.50;;;12.50;99.90;;;;;;5098377;27;20370;-66
2023/04/09 09:53:44;;;;;;;38.63;23.60;;;12.50;99.90;;;;;;5112169;27;20043;-67
2023/04/09 09:56:21;;;;;;;38.55;24.02;;;12.60;99.90;;;;;;5109429;27;20039;-66
2023/04/09 09:59:00;;;;;;;35.65;21.58;;;12.60;99.90;;;;;;5108823;27;20047;-65
2023/04/09 10:01:27;;;;;;;35.50;21.30;;;12.80;99.90;;;;;;5130186;27;20413;-66
2023/04/09 10:03:55;;;;;;;35.88;21.63;;;13.00;99.90;;;;;;5126701;27;20070;-66
2023/04/09 10:06:21;;;;;;;37.03;22.55;;;13.10;99.90;;;;;;5102582;27;20115;-66
2023/04/09 10:08:48;;;;;;;36.25;21.13;;;13.20;99.90;;;;;;5128630;27;20063;-66
2023/04/09 10:11:14;;;;;;;35.80;22.35;;;13.10;99.90;;;;;;5104558;27;20122;-65
2023/04/09 10:13:45;;;;;;;34.95;21.17;;;13.20;99.90;;;;;;5107231;27;20349;-66
2023/04/09 10:16:11;;;;;;;34.67;21.80;;;13.40;99.90;;;;;;5108023;27;20054;-65
2023/04/09 10:18:37;;;;;;;34.60;22.00;;;13.40;99.90;;;;;;5101814;27;20047;-65
2023/04/09 10:21:13;;;;;;;37.55;22.08;;;13.30;99.90;;;;;;5105968;27;20039;-66
2023/04/09 10:23:41;;;;;;;35.20;22.38;;;13.30;99.90;;;;;;5103953;27;20144;-66
2023/04/09 10:26:07;;;;;;;36.53;23.08;;;13.40;99.90;;;;;;5108336;27;20129;-66
2023/04/09 10:28:33;;;;;;;38.92;23.13;;;13.40;99.90;;;;;;5122697;27;20656;-66
2023/04/09 10:30:59;;;;;;;37.15;23.67;;;13.50;99.90;;;;;;5110690;27;20043;-65
2023/04/09 10:33:26;;;;;;;36.00;21.80;;;13.60;99.90;;;;;;5126986;27;20043;-65
2023/04/09 10:36:00;;;;;;;35.22;22.00;;;13.70;99.90;;;;;;5108887;27;20050;-66
2023/04/09 10:38:52;;;;;;;35.45;22.65;;;13.80;99.90;;;;;;5115437;27;20044;-66
2023/04/09 10:41:22;;;;;;;36.83;23.60;;;13.90;99.90;;;;;;5099146;27;20052;-65
2023/04/09 10:43:48;;;;;;;38.08;23.63;;;14.00;99.90;;;;;;5106859;27;20355;-66
2023/04/09 10:46:35;;;;;;;34.70;22.65;;;14.10;99.90;;;;;;5105014;27;20064;-66
2023/04/09 10:49:34;;;;;;;34.58;22.35;;;14.10;99.90;;;;;;5104527;27;20047;-65
2023/04/09 10:52:05;;;;;;;35.53;22.50;;;14.40;99.90;;;;;;5101800;27;20051;-65
2023/04/09 10:54:34;;;;;;;34.77;23.30;;;14.40;99.90;;;;;;5100375;27;20074;-65
2023/04/09 10:57:17;;;;;;;36.92;22.85;;;14.60;99.90;;;;;;5103357;27;20049;-66
2023/04/09 10:59:47;;;;;;;33.90;21.13;;;14.70;99.90;;;;;;5105676;27;20112;-66
2023/04/09 11:02:37;;;;;;;40.15;22.67;;;14.70;99.90;;;;;;5108672;27;20100;-66
2023/04/09 11:05:25;;;;;;;37.25;23.38;;;14.60;99.90;;;;;;5105628;27;20043;-67
2023/04/09 11:08:17;;;;;;;35.70;22.55;;;14.60;99.90;;;;;;5105688;27;20638;-66
2023/04/09 11:10:43;;;;;;;37.67;22.60;;;14.50;99.90;;;;;;5101191;27;20049;-66
2023/04/09 11:13:17;;;;;;;35.78;23.10;;;14.40;99.90;;;;;;5122256;27;20650;-65
2023/04/09 11:15:43;;;;;;;38.30;24.30;;;14.30;99.90;;;;;;5107123;27;20155;-66
2023/04/09 11:18:14;;;;;;;36.75;23.33;;;14.10;99.90;;;;;;5106258;27;20119;-66
2023/04/09 11:20:39;;;;;;;33.92;22.77;;;14.30;99.90;;;;;;5105649;27;20439;-65
2023/04/09 11:23:06;;;;;;;36.38;22.92;;;14.40;99.90;;;;;;5124307;27;20043;-65
2023/04/09 11:25:32;;;;;;;35.35;23.35;;;14.40;99.90;;;;;;5122965;27;20031;-65
2023/04/09 11:27:59;;;;;;;34.78;23.38;;;14.50;99.90;;;;;;5104872;27;20035;-65
2023/04/09 11:30:25;;;;;;;34.33;22.83;;;14.70;99.90;;;;;;5101803;27;20035;-65
2023/04/09 11:32:50;;;;;;;32.97;21.83;;;14.90;99.90;;;;;;5121574;27;20042;-66
2023/04/09 11:35:21;;;;;;;33.80;21.52;;;15.20;99.90;;;;;;5122795;27;20039;-67
2023/04/09 11:37:47;;;;;;;33.40;21.08;;;15.50;99.90;;;;;;5102344;27;20091;-66
2023/04/09 11:40:15;;;;;;;32.17;21.25;;;15.70;99.90;;;;;;5100840;27;20089;-66
2023/04/09 11:42:42;;;;;;;29.13;21.27;;;15.90;99.90;;;;;;5099654;27;20043;-66
2023/04/09 11:45:09;;;;;;;30.50;21.30;;;15.90;99.90;;;;;;5100657;27;20046;-65
2023/04/09 11:47:35;;;;;;;30.60;21.35;;;16.00;99.90;;;;;;5099318;27;20031;-66
2023/04/09 11:50:01;;;;;;;31.80;21.50;;;15.90;99.90;;;;;;5100792;27;20042;-66
2023/04/09 11:52:29;;;;;;;31.83;20.98;;;15.80;99.90;;;;;;5101885;27;20394;-66
2023/04/09 11:55:00;;;;;;;30.35;20.85;;;15.80;99.90;;;;;;5126032;27;20393;-66
2023/04/09 11:57:42;;;;;;;29.92;20.80;;;15.80;99.90;;;;;;5104085;27;20242;-66
2023/04/09 12:00:11;;;;;;;25.60;17.60;;;15.90;99.90;;;;;;5108064;27;20052;-66
2023/04/09 12:02:39;;;;;;;24.00;16.65;;;16.00;99.90;;;;;;5109173;28;20066;-66
2023/04/09 12:05:06;;;;;;;25.35;17.20;;;16.00;99.90;;;;;;5107980;28;20103;-66
2023/04/09 12:07:32;;;;;;;23.17;16.65;;;16.20;99.90;;;;;;5104641;28;20039;-65
2023/04/09 12:10:09;;;;;;;24.95;16.55;;;16.30;99.90;;;;;;5103086;28;20058;-65
2023/04/09 12:12:45;;;;;;;21.60;16.00;;;16.40;99.90;;;;;;5102793;28;20047;-65
2023/04/09 12:15:20;;;;;;;22.70;15.52;;;16.40;99.90;;;;;;5097785;28;20051;-65
2023/04/09 12:17:49;;;;;;;23.27;16.13;;;16.30;99.90;;;;;;5103167;28;20042;-66
2023/04/09 12:20:42;;;;;;;24.05;16.48;;;16.40;99.90;;;;;;5120673;28;20377;-67
2023/04/09 12:23:10;;;;;;;24.08;15.90;;;16.60;99.90;;;;;;5102282;28;20043;-66
2023/04/09 12:25:46;;;;;;;24.20;16.20;;;16.80;99.90;;;;;;5107115;28;20035;-66
2023/04/09 12:28:14;;;;;;;23.67;16.27;;;16.90;99.90;;;;;;5099456;28;20439;-65
2023/04/09 12:30:40;;;;;;;24.30;16.88;;;17.00;99.90;;;;;;5120692;27;20058;-66
2023/04/09 12:33:06;;;;;;;25.02;16.90;;;16.90;99.90;;;;;;5105528;28;20427;-66
2023/04/09 12:35:33;;;;;;;23.38;15.68;;;17.00;99.90;;;;;;5122182;28;20085;-66
2023/04/09 12:37:59;;;;;;;24.98;17.42;;;17.00;99.90;;;;;;5119740;27;20427;-65